AirNav   Pilot Hours Calculator
 
 916 users online  

21CO Southlands Ed Heliport
Aurora, Colorado, USA

GOING TO AURORA?


FAA INFORMATION EFFECTIVE 08 SEPTEMBER 2022

Location

FAA Identifier: 21CO
Lat/Long: 39-36-12.0000N 104-42-42.0000W
39-36.200000N 104-42.700000W
39.6033333,-104.7116667
(estimated)
Elevation: 6052 ft. / 1845 m (estimated)
Variation: 10E (2000)
From city: 11 miles SSE of AURORA, CO
Time zone: UTC -6 (UTC -7 during Standard Time)
Zip code: 80016

Heliport Operations

Heliport use: Private use. Permission required prior to landing
Activation date: 08/2016
Control tower: no
ARTCC: DENVER CENTER
FSS: DENVER FLIGHT SERVICE STATION
Attendance: UNATNDD
Segmented circle: no

Heliport Communications

WX ASOS at APA (7 nm W): PHONE 720-873-2799
WX AWOS-3 at CFO (14 nm NE): 119.025 (303-261-9104)
WX ASOS at DEN (16 nm N): PHONE 303-342-1920

Nearby radio navigation aids

VOR radial/distance  VOR name  Freq  Var
FQFr208/6.7FALCON VORTAC116.3011E
DENr183/12.8DENVER VOR/DME117.9008E
DVVr185/17.9MILE HIGH VORTAC114.7008E
BJCr122/27.1JEFFCO VOR/DME115.4011E
BRKr347/39.7BLACK FOREST VOR/DME112.5008E

Heliport Services

Runway Information

Helipad H1

Dimensions: 42 x 42 ft. / 13 x 13 m
Surface: concrete
Traffic pattern: leftleft

Heliport Ownership and Management from official FAA records

Ownership: Privately-owned
Owner: PARKER ADVENTIST HOSPITAL
9395 CROWN CREST BLVD
PARKER, CO 80138
Phone 303-269-4000
Manager: MIKE EDWARDS
9395 CROWN CREST BLVD
PARKER, CO 80138
Phone 303-269-4000
CONTACT JON BRILLHART - SAFETY OFFICER 303-269-4762;

Additional Remarks

FOR CD CTC DENVER APCH AT 303-342-1916.

Instrument Procedures

There are no published instrument procedures at 21CO.

Some nearby airports with instrument procedures:

KBKF - Buckley Space Force Base (6 nm N)
KAPA - Centennial Airport (7 nm W)
KCFO - Colorado Air and Space Port Airport (14 nm NE)
KDEN - Denver International Airport (16 nm N)
KBJC - Rocky Mountain Metro Airport (26 nm NW)
 
Loc | Ops | Rwys | IFR | FBO | Links
Com | Nav | Svcs | Stats | Notes

AirBoss

 
Aerial photo
No photo
 
Airport distance calculator
Flying to Southlands Ed Heliport? Find the distance to fly.

From to 21CO

Sunrise and sunset
Times for 24-Sep-2022
 Local
(UTC-6)
 Zulu
(UTC)
Morning civil twilight06:2312:23
Sunrise06:4912:49
Sunset18:5200:52
Evening civil twilight19:1901:19

Current date and time
Zulu (UTC)  24-Sep-2022 23:15:50
Local (UTC-6)  24-Sep-2022 17:15:50
 
METAR
KAPA 
7nm W 
242253Z 02006KT 10SM FEW100 26/M04 A3020 RMK AO2 SLP173 T02611044
KBKF 
7nm N 
242258Z 33005KT 10SM FEW100 27/M04 A3020 RMK AO2A SLP164 T02701038
KCFO 
14nm NE 
242247Z 03006KT 10SM SKC 27/M08 A3020
KDEN 
14nm N 
242253Z 07006KT 10SM FEW100 26/M04 A3018 RMK AO2 SLP155 T02611044
TAF
KAPA 
7nm W 
241740Z 2418/2518 VRB05KT P6SM FEW100 FEW220 FM242200 08006KT P6SM FEW220 FM250700 01006KT P6SM FEW220 FM251100 19006KT P6SM SKC FM251700 04006KT P6SM SKC
KBKF 
7nm N 
241700Z 2417/2523 VRB06KT 9999 SKC 510023 QNH3021INS TX24/2422Z TN07/2512Z
KDEN 
14nm N 
242032Z 2421/2524 01009KT P6SM FEW100 FEW220 FM242230 04010KT P6SM FEW100 FEW220 FM250000 09006KT P6SM FEW220 FM250600 01006KT P6SM FEW220 FM251000 20006KT P6SM SKC FM251700 02007KT P6SM SKC FM252000 07007KT P6SM FEW120
NOTAMs
Click for the latest NOTAMs
NOTAMs are issued by the DoD/FAA and will open in a separate window not controlled by AirNav.

 

 
 

Would you like to see your business listed on this page?

 If your business provides an interesting product or service to pilots, flight crews, aircraft, or users of the Southlands Ed Heliport, you should consider listing it here.  To start the listing process, click on the button below
 
Add a business
 

Other Pages about Southlands Ed Heliport

Update a link
 
Copyright © AirNav, LLC. All rights reserved. Privacy Policy  Contact